createdAt,value
2022-09-04T00:00:55.320Z,77
2022-09-04T00:02:02.499Z,77
2022-09-04T00:03:14.851Z,77
2022-09-04T00:04:32.463Z,77
2022-09-04T00:05:47.004Z,77
2022-09-04T00:06:56.343Z,77
2022-09-04T00:08:11.051Z,77
2022-09-04T00:09:20.511Z,77
2022-09-04T00:10:32.719Z,77
2022-09-04T00:13:24.555Z,76
2022-09-04T00:14:29.087Z,76
2022-09-04T00:15:38.363Z,76
2022-09-04T00:16:51.588Z,76
2022-09-04T00:17:59.556Z,76
2022-09-04T00:19:03.925Z,76
2022-09-04T00:20:15.407Z,76
2022-09-04T00:21:34.979Z,76
2022-09-04T00:22:44.236Z,76
2022-09-04T00:25:19.347Z,76
2022-09-04T00:26:42.031Z,77
2022-09-04T00:31:16.266Z,77
2022-09-04T00:32:23.496Z,77
2022-09-04T00:35:28.695Z,77
2022-09-04T00:36:38.668Z,77
2022-09-04T00:37:47.959Z,78
2022-09-04T00:39:00.399Z,78
2022-09-04T00:40:22.056Z,78
2022-09-04T00:41:26.187Z,78
2022-09-04T00:42:33.203Z,77
2022-09-04T00:44:03.107Z,77
2022-09-04T00:45:17.807Z,77
2022-09-04T00:46:32.579Z,77
2022-09-04T00:47:40.293Z,77
2022-09-04T00:49:02.843Z,77
2022-09-04T00:51:51.719Z,76
2022-09-04T00:53:01.456Z,76
2022-09-04T00:55:46.271Z,76
2022-09-04T00:56:55.732Z,76
2022-09-04T00:58:09.115Z,76
2022-09-04T00:59:13.755Z,76
2022-09-04T01:00:23.300Z,76
2022-09-04T01:01:45.219Z,76
2022-09-04T01:02:50.476Z,76
2022-09-04T01:04:00.275Z,76
2022-09-04T01:05:09.707Z,76
2022-09-04T01:06:22.115Z,77
2022-09-04T01:07:29.023Z,77
2022-09-04T01:08:38.443Z,77
2022-09-04T01:09:47.987Z,77
2022-09-04T01:11:03.355Z,77
2022-09-04T01:12:12.539Z,77
2022-09-04T01:13:27.275Z,77
2022-09-04T01:14:41.827Z,77
2022-09-04T01:15:46.507Z,77
2022-09-04T01:16:55.785Z,77
2022-09-04T01:18:05.163Z,77
2022-09-04T01:20:49.935Z,77
2022-09-04T01:25:31.207Z,77
2022-09-04T01:26:56.996Z,76
2022-09-04T01:28:11.363Z,76
2022-09-04T01:29:26.599Z,76
2022-09-04T01:30:41.571Z,76
2022-09-04T01:33:19.878Z,76
2022-09-04T01:35:03.947Z,77
2022-09-04T01:36:18.668Z,76
2022-09-04T01:37:29.159Z,76
2022-09-04T01:40:20.139Z,76
2022-09-04T01:41:29.567Z,77
2022-09-04T01:44:18.991Z,77
2022-09-04T01:45:39.514Z,78
2022-09-04T01:46:51.855Z,78
2022-09-04T01:48:06.543Z,78
2022-09-04T01:49:20.925Z,78
2022-09-04T01:50:32.316Z,78
2022-09-04T01:51:36.835Z,77
2022-09-04T01:52:41.308Z,77
2022-09-04T01:54:02.191Z,77
2022-09-04T01:55:11.954Z,77
2022-09-04T01:56:24.132Z,77
2022-09-04T01:57:33.816Z,77
2022-09-04T01:59:00.890Z,77
2022-09-04T02:00:13.427Z,77
2022-09-04T02:01:19.114Z,77
2022-09-04T02:02:27.668Z,76
2022-09-04T02:03:42.299Z,76
2022-09-04T02:04:52.387Z,76
2022-09-04T02:08:12.683Z,76
2022-09-04T02:09:22.063Z,76
2022-09-04T02:10:34.224Z,76
2022-09-04T02:13:20.844Z,76
2022-09-04T02:14:35.675Z,76
2022-09-04T02:15:47.703Z,76
2022-09-04T02:17:02.286Z,77
2022-09-04T02:18:18.373Z,77
2022-09-04T02:19:38.752Z,77
2022-09-04T02:20:45.919Z,77
2022-09-04T02:22:00.208Z,78
2022-09-04T02:23:04.547Z,78
2022-09-04T02:24:16.751Z,78
2022-09-04T02:25:33.039Z,78
2022-09-04T02:26:41.047Z,78
2022-09-04T02:27:48.266Z,78
2022-09-04T02:28:52.572Z,78
2022-09-04T02:30:10.599Z,78
2022-09-04T02:31:20.482Z,78
2022-09-04T02:32:37.135Z,78
2022-09-04T02:33:52.075Z,77
2022-09-04T02:35:06.683Z,77
2022-09-04T02:36:16.084Z,77
2022-09-04T02:37:20.298Z,77
2022-09-04T02:38:27.377Z,77
2022-09-04T02:39:42.384Z,77
2022-09-04T02:40:51.895Z,77
2022-09-04T02:42:06.567Z,77
2022-09-04T02:43:16.403Z,77
2022-09-04T02:44:25.908Z,77
2022-09-04T02:45:35.395Z,77
2022-09-04T02:48:27.959Z,77
2022-09-04T02:49:43.019Z,77
2022-09-04T02:50:57.689Z,77
2022-09-04T02:52:12.360Z,77
2022-09-04T02:53:19.388Z,77
2022-09-04T02:54:31.764Z,77
2022-09-04T02:55:46.536Z,77
2022-09-04T02:57:01.096Z,77
2022-09-04T02:58:15.707Z,78
2022-09-04T02:59:28.244Z,78
2022-09-04T03:00:32.926Z,78
2022-09-04T03:01:49.842Z,78
2022-09-04T03:02:58.355Z,78
2022-09-04T03:05:36.687Z,78
2022-09-04T03:07:02.508Z,78
2022-09-04T03:09:40.679Z,77
2022-09-04T03:10:50.711Z,77
2022-09-04T03:12:16.627Z,77
2022-09-04T03:13:28.111Z,77
2022-09-04T03:14:42.895Z,77
2022-09-04T03:15:47.255Z,77
2022-09-04T03:17:01.580Z,77
2022-09-04T03:18:20.230Z,77
2022-09-04T03:19:32.519Z,77
2022-09-04T03:20:44.659Z,77
2022-09-04T03:21:56.752Z,76
2022-09-04T03:23:07.313Z,76
2022-09-04T03:24:20.756Z,76
2022-09-04T03:25:30.204Z,77
2022-09-04T03:26:50.879Z,77
2022-09-04T03:29:19.568Z,77
2022-09-04T03:30:31.880Z,77
2022-09-04T03:31:38.631Z,77
2022-09-04T03:32:58.291Z,77
2022-09-04T03:35:11.008Z,78
2022-09-04T03:36:23.260Z,78
2022-09-04T03:37:35.880Z,78
2022-09-04T03:38:53.544Z,78
2022-09-04T03:40:03.856Z,78
2022-09-04T03:41:28.635Z,79
2022-09-04T03:42:41.484Z,79
2022-09-04T03:43:56.283Z,79
2022-09-04T03:45:00.536Z,79
2022-09-04T03:46:15.424Z,79
2022-09-04T03:47:28.132Z,79
2022-09-04T03:48:48.144Z,79
2022-09-04T03:49:57.712Z,79
2022-09-04T03:51:14.743Z,79
2022-09-04T03:52:24.008Z,79
2022-09-04T03:53:51.491Z,79
2022-09-04T03:54:56.024Z,78
2022-09-04T03:56:10.544Z,78
2022-09-04T03:58:59.919Z,79
2022-09-04T04:00:09.265Z,78
2022-09-04T04:01:16.027Z,78
2022-09-04T04:02:42.753Z,78
2022-09-04T04:03:55.331Z,78
2022-09-04T04:04:59.916Z,78
2022-09-04T04:06:14.595Z,78
2022-09-04T04:07:24.088Z,78
2022-09-04T04:10:17.603Z,78
2022-09-04T04:11:29.939Z,78
2022-09-04T04:14:47.455Z,78
2022-09-04T04:16:05.060Z,79
2022-09-04T04:17:12.520Z,78
2022-09-04T04:18:42.993Z,79
2022-09-04T04:19:57.779Z,79
2022-09-04T04:21:07.308Z,79
2022-09-04T04:22:16.515Z,79
2022-09-04T04:23:20.867Z,79
2022-09-04T04:24:33.175Z,79
2022-09-04T04:25:43.071Z,79
2022-09-04T04:27:00.616Z,79
2022-09-04T04:28:13.498Z,79
2022-09-04T04:29:18.268Z,79
2022-09-04T04:30:25.395Z,79
2022-09-04T04:31:37.876Z,79
2022-09-04T04:32:52.372Z,79
2022-09-04T04:34:06.823Z,79
2022-09-04T04:35:26.878Z,78
2022-09-04T04:36:39.877Z,79
2022-09-04T04:37:47.435Z,78
2022-09-04T04:38:59.643Z,78
2022-09-04T04:41:57.091Z,78
2022-09-04T04:43:12.743Z,78
2022-09-04T04:44:17.303Z,78
2022-09-04T04:45:22.091Z,78
2022-09-04T04:46:37.798Z,78
2022-09-04T04:47:47.243Z,78
2022-09-04T04:51:17.158Z,78
2022-09-04T04:52:29.823Z,78
2022-09-04T04:53:44.306Z,79
2022-09-04T04:55:03.891Z,79
2022-09-04T04:56:18.319Z,79
2022-09-04T04:57:33.002Z,79
2022-09-04T04:58:47.555Z,79
2022-09-04T04:59:56.827Z,78
2022-09-04T05:01:11.371Z,78
2022-09-04T05:02:15.401Z,78
2022-09-04T05:03:29.923Z,78
2022-09-04T05:04:44.791Z,78
2022-09-04T05:05:59.706Z,78
2022-09-04T05:07:14.442Z,78
2022-09-04T05:08:23.843Z,78
2022-09-04T05:09:38.647Z,77
2022-09-04T05:10:43.034Z,77
2022-09-04T05:11:55.967Z,77
2022-09-04T05:13:10.963Z,77
2022-09-04T05:14:30.490Z,77
2022-09-04T05:15:53.131Z,77
2022-09-04T05:16:55.701Z,77
2022-09-04T05:19:45.182Z,77
2022-09-04T05:20:59.987Z,77
2022-09-04T05:22:09.395Z,77
2022-09-04T05:23:28.923Z,78
2022-09-04T05:24:34.894Z,77
2022-09-04T05:25:49.966Z,78
2022-09-04T05:27:02.515Z,78
2022-09-04T05:28:15.195Z,78
2022-09-04T05:29:31.885Z,78
2022-09-04T05:31:00.828Z,78
2022-09-04T05:32:08.362Z,78
2022-09-04T05:33:22.899Z,78
2022-09-04T05:36:29.163Z,78
2022-09-04T05:37:33.618Z,78
2022-09-04T05:38:43.446Z,78
2022-09-04T05:40:16.038Z,78
2022-09-04T05:43:13.785Z,77
2022-09-04T05:44:27.900Z,77
2022-09-04T05:45:41.658Z,77
2022-09-04T05:46:51.718Z,77
2022-09-04T05:48:06.558Z,77
2022-09-04T05:49:16.859Z,77
2022-09-04T05:50:31.902Z,77
2022-09-04T05:51:46.536Z,77
2022-09-04T05:53:00.948Z,77
2022-09-04T05:54:13.770Z,77
2022-09-04T05:55:32.891Z,77
2022-09-04T05:56:42.590Z,77
2022-09-04T05:57:55.070Z,77
2022-09-04T05:59:02.974Z,77
2022-09-04T06:00:15.811Z,77
2022-09-04T06:01:27.475Z,79
2022-09-04T06:02:43.468Z,78
2022-09-04T06:03:50.779Z,79
2022-09-04T06:06:41.299Z,79
2022-09-04T06:07:51.228Z,79
2022-09-04T06:08:58.466Z,79
2022-09-04T06:10:03.048Z,79
2022-09-04T06:12:56.586Z,78
2022-09-04T06:14:11.611Z,79
2022-09-04T06:15:26.182Z,79
2022-09-04T06:16:39.742Z,79
2022-09-04T06:17:51.798Z,79
2022-09-04T06:19:05.386Z,78
2022-09-04T06:20:20.058Z,78
2022-09-04T06:21:35.162Z,77
2022-09-04T06:22:44.713Z,77
2022-09-04T06:23:49.041Z,77
2022-09-04T06:25:01.267Z,77
2022-09-04T06:26:29.078Z,77
2022-09-04T06:27:43.757Z,77
2022-09-04T06:28:56.101Z,77
2022-09-04T06:30:18.078Z,77
2022-09-04T06:31:22.383Z,77
2022-09-04T06:32:31.944Z,77
2022-09-04T06:33:44.581Z,77
2022-09-04T06:34:59.129Z,77
2022-09-04T06:36:17.130Z,77
2022-09-04T06:37:26.538Z,77
2022-09-04T06:38:44.509Z,77
2022-09-04T06:40:06.101Z,78
2022-09-04T06:41:15.666Z,78
2022-09-04T06:42:28.708Z,78
2022-09-04T06:43:38.615Z,78
2022-09-04T06:45:01.962Z,78
2022-09-04T06:46:12.391Z,78
2022-09-04T06:47:23.459Z,78
2022-09-04T06:48:39.962Z,78
2022-09-04T06:49:45.208Z,78
2022-09-04T06:50:55.057Z,78
2022-09-04T06:52:09.825Z,78
2022-09-04T06:53:18.481Z,78
2022-09-04T06:54:26.162Z,78
2022-09-04T06:55:38.965Z,78
2022-09-04T06:56:53.345Z,78
2022-09-04T06:58:07.974Z,78
2022-09-04T06:59:17.794Z,78
2022-09-04T07:00:27.403Z,77
2022-09-04T07:01:32.157Z,77
2022-09-04T07:02:45.128Z,77
2022-09-04T07:04:59.473Z,77
2022-09-04T07:06:10.418Z,77
2022-09-04T07:07:18.589Z,77
2022-09-04T07:08:26.342Z,77
2022-09-04T07:09:33.845Z,77
2022-09-04T07:10:40.874Z,77
2022-09-04T07:11:49.162Z,77
2022-09-04T07:13:01.901Z,77
2022-09-04T07:14:12.226Z,77
2022-09-04T07:15:25.925Z,77
2022-09-04T07:16:40.517Z,77
2022-09-04T07:17:45.397Z,77
2022-09-04T07:19:00.653Z,77
2022-09-04T07:20:15.447Z,77
2022-09-04T07:21:27.784Z,78
2022-09-04T07:22:45.077Z,78
2022-09-04T07:24:01.000Z,78
2022-09-04T07:25:05.121Z,78
2022-09-04T07:26:15.177Z,79
2022-09-04T07:27:25.865Z,79
2022-09-04T07:28:38.537Z,79
2022-09-04T07:29:46.089Z,79
2022-09-04T07:30:54.198Z,79
2022-09-04T07:32:06.881Z,79
2022-09-04T07:33:11.813Z,79
2022-09-04T07:34:21.617Z,79
2022-09-04T07:35:26.229Z,79
2022-09-04T07:36:39.589Z,79
2022-09-04T07:37:50.234Z,78
2022-09-04T07:39:00.454Z,78
2022-09-04T07:40:10.291Z,78
2022-09-04T07:41:20.377Z,78
2022-09-04T07:42:33.425Z,77
2022-09-04T07:43:54.076Z,77
2022-09-04T07:44:59.649Z,77
2022-09-04T07:46:04.494Z,77
2022-09-04T07:47:13.858Z,77
2022-09-04T07:48:29.697Z,77
2022-09-04T07:49:42.517Z,76
2022-09-04T07:50:55.194Z,76
2022-09-04T07:53:14.225Z,76
2022-09-04T07:54:20.530Z,76
2022-09-04T07:55:30.833Z,76
2022-09-04T07:56:40.607Z,76
2022-09-04T07:57:55.277Z,77
2022-09-04T07:59:07.733Z,77
2022-09-04T08:00:22.267Z,77
2022-09-04T08:02:38.085Z,78
2022-09-04T08:03:53.759Z,78
2022-09-04T08:05:06.299Z,78
2022-09-04T08:06:21.592Z,78
2022-09-04T08:07:31.369Z,79
2022-09-04T08:09:48.201Z,80
2022-09-04T08:11:01.084Z,80
2022-09-04T08:12:10.737Z,81
2022-09-04T08:13:15.309Z,81
2022-09-04T08:14:30.262Z,81
2022-09-04T08:15:45.122Z,81
2022-09-04T08:16:59.838Z,81
2022-09-04T08:18:07.082Z,82
2022-09-04T08:19:17.538Z,81
2022-09-04T08:20:30.197Z,81
2022-09-04T08:21:40.053Z,81
2022-09-04T08:22:44.577Z,81
2022-09-04T08:23:54.313Z,81
2022-09-04T08:25:03.798Z,81
2022-09-04T08:26:15.831Z,81
2022-09-04T08:27:28.729Z,81
2022-09-04T08:28:46.020Z,81
2022-09-04T08:29:57.583Z,81
2022-09-04T08:31:07.513Z,81
2022-09-04T08:32:13.065Z,81
2022-09-04T08:33:27.694Z,81
2022-09-04T08:34:42.377Z,81
2022-09-04T08:35:54.861Z,81
2022-09-04T08:37:07.210Z,82
2022-09-04T08:38:21.973Z,82
2022-09-04T08:39:36.884Z,81
2022-09-04T08:42:02.909Z,81
2022-09-04T08:43:17.745Z,81
2022-09-04T08:44:32.285Z,81
2022-09-04T08:45:42.377Z,82
2022-09-04T08:46:51.602Z,82
2022-09-04T08:48:04.104Z,82
2022-09-04T08:50:25.273Z,82
2022-09-04T08:51:39.993Z,82
2022-09-04T08:52:49.621Z,81
2022-09-04T08:54:04.856Z,81
2022-09-04T08:55:15.265Z,81
2022-09-04T08:56:25.905Z,81
2022-09-04T08:57:35.424Z,81
2022-09-04T08:58:50.141Z,81
2022-09-04T09:00:05.933Z,81
2022-09-04T09:01:22.057Z,82
2022-09-04T09:02:36.723Z,81
2022-09-04T09:03:49.755Z,82
2022-09-04T09:06:20.188Z,82
2022-09-04T09:07:35.590Z,82
2022-09-04T09:08:50.772Z,82
2022-09-04T09:10:05.774Z,82
2022-09-04T09:11:20.540Z,82
2022-09-04T09:12:37.364Z,82
2022-09-04T09:13:44.813Z,82
2022-09-04T09:14:55.696Z,82
2022-09-04T09:16:15.210Z,81
2022-09-04T09:17:28.000Z,81
2022-09-04T09:18:40.951Z,81
2022-09-04T09:19:54.336Z,81
2022-09-04T09:21:09.145Z,81
2022-09-04T09:22:24.072Z,81
2022-09-04T09:23:31.748Z,81
2022-09-04T09:24:44.013Z,82
2022-09-04T09:25:58.484Z,81
2022-09-04T09:27:13.133Z,81
2022-09-04T09:28:28.196Z,81
2022-09-04T09:29:35.828Z,81
2022-09-04T09:30:45.194Z,81
2022-09-04T09:32:03.499Z,81
2022-09-04T09:33:11.528Z,81
2022-09-04T09:34:25.388Z,81
2022-09-04T09:35:38.180Z,81
2022-09-04T09:36:47.929Z,81
2022-09-04T09:38:04.265Z,81
2022-09-04T09:39:12.872Z,81
2022-09-04T09:41:34.500Z,81
2022-09-04T09:42:44.909Z,81
2022-09-04T09:43:59.776Z,82
2022-09-04T09:45:09.551Z,82
2022-09-04T09:46:26.812Z,82
2022-09-04T09:47:37.586Z,82
2022-09-04T09:48:47.845Z,82
2022-09-04T09:49:58.212Z,81
2022-09-04T09:51:13.037Z,81
2022-09-04T09:52:21.824Z,82
2022-09-04T09:53:32.080Z,82
2022-09-04T09:54:39.272Z,82
2022-09-04T09:55:46.602Z,82
2022-09-04T09:57:01.776Z,81
2022-09-04T09:58:18.148Z,81
2022-09-04T09:59:33.180Z,81
2022-09-04T10:00:53.205Z,81
2022-09-04T10:02:09.419Z,82
2022-09-04T10:03:21.892Z,82
2022-09-04T10:04:34.325Z,81
2022-09-04T10:05:46.095Z,81
2022-09-04T10:07:00.074Z,82
2022-09-04T10:08:14.841Z,81
2022-09-04T10:09:27.100Z,81
2022-09-04T10:10:39.604Z,81
2022-09-04T10:11:53.408Z,81
2022-09-04T10:13:07.996Z,81
2022-09-04T10:14:23.239Z,81
2022-09-04T10:15:34.943Z,80
2022-09-04T10:16:44.867Z,80
2022-09-04T10:17:59.636Z,80
2022-09-04T10:19:10.760Z,79
2022-09-04T10:20:15.848Z,79
2022-09-04T10:21:26.137Z,78
2022-09-04T10:22:40.468Z,78
2022-09-04T10:23:56.108Z,78
2022-09-04T10:25:00.655Z,78
2022-09-04T10:26:10.388Z,78
2022-09-04T10:27:23.006Z,78
2022-09-04T10:28:38.023Z,78
2022-09-04T10:29:48.325Z,77
2022-09-04T10:30:58.193Z,77
2022-09-04T10:32:08.046Z,77
2022-09-04T10:33:24.568Z,77
2022-09-04T10:34:39.763Z,78
2022-09-04T10:35:54.459Z,78
2022-09-04T10:37:09.256Z,75
2022-09-04T10:38:21.743Z,75
2022-09-04T10:39:26.830Z,76
2022-09-04T10:40:50.696Z,75
2022-09-04T10:41:57.114Z,75
2022-09-04T10:43:07.683Z,75
2022-09-04T10:44:20.626Z,74
2022-09-04T10:45:30.413Z,74
2022-09-04T10:46:43.567Z,74
2022-09-04T10:47:53.202Z,74
2022-09-04T10:49:08.318Z,73
2022-09-04T10:50:13.238Z,73
2022-09-04T10:51:22.703Z,74
2022-09-04T10:52:36.178Z,73
2022-09-04T10:53:51.346Z,73
2022-09-04T10:55:01.903Z,73
2022-09-04T10:56:16.730Z,73
2022-09-04T10:57:26.706Z,74
2022-09-04T10:58:39.327Z,73
2022-09-04T10:59:49.050Z,73
2022-09-04T11:01:01.336Z,72
2022-09-04T11:02:11.350Z,71
2022-09-04T11:03:21.986Z,71
2022-09-04T11:04:29.270Z,71
2022-09-04T11:05:44.050Z,71
2022-09-04T11:06:58.474Z,72
2022-09-04T11:08:13.080Z,72
2022-09-04T11:09:27.514Z,72
2022-09-04T11:10:31.902Z,72
2022-09-04T11:11:41.414Z,72
2022-09-04T11:12:49.014Z,72
2022-09-04T11:14:03.515Z,72
2022-09-04T11:15:12.777Z,72
2022-09-04T11:16:24.740Z,71
2022-09-04T11:17:37.385Z,71
2022-09-04T11:18:47.030Z,72
2022-09-04T11:19:59.402Z,72
2022-09-04T11:21:14.319Z,71
2022-09-04T11:22:28.706Z,70
2022-09-04T11:23:40.780Z,69
2022-09-04T11:24:53.218Z,69
2022-09-04T11:25:59.794Z,70
2022-09-04T11:27:10.946Z,69
2022-09-04T11:28:25.614Z,69
2022-09-04T11:29:40.396Z,69
2022-09-04T11:30:52.840Z,68
2022-09-04T11:32:08.994Z,68
2022-09-04T11:33:20.655Z,68
2022-09-04T11:34:35.290Z,68
2022-09-04T11:35:44.666Z,68
2022-09-04T11:36:54.659Z,68
2022-09-04T11:38:04.254Z,68
2022-09-04T11:39:20.225Z,69
2022-09-04T11:40:33.342Z,68
2022-09-04T11:41:44.770Z,67
2022-09-04T11:42:56.036Z,67
2022-09-04T11:44:07.730Z,67
2022-09-04T11:45:18.082Z,68
2022-09-04T11:47:41.726Z,68
2022-09-04T11:48:51.408Z,68
2022-09-04T11:50:03.756Z,68
2022-09-04T11:51:21.415Z,68
2022-09-04T11:52:36.238Z,67
2022-09-04T11:53:48.438Z,67
2022-09-04T11:54:59.318Z,68
2022-09-04T11:56:12.250Z,68
2022-09-04T11:57:20.851Z,69
2022-09-04T11:58:35.370Z,69
2022-09-04T11:59:46.106Z,68
2022-09-04T12:00:53.370Z,68
2022-09-04T12:02:00.847Z,68
2022-09-04T12:03:12.458Z,68
2022-09-04T12:04:30.908Z,69
2022-09-04T12:05:46.250Z,68
2022-09-04T12:06:53.690Z,67
2022-09-04T12:08:08.850Z,68
2022-09-04T12:09:21.346Z,68
2022-09-04T12:10:37.270Z,68
2022-09-04T12:11:48.703Z,68
2022-09-04T12:12:59.661Z,68
2022-09-04T12:14:10.646Z,68
2022-09-04T12:15:26.298Z,67
2022-09-04T12:16:40.874Z,67
2022-09-04T12:17:55.394Z,67
2022-09-04T12:19:08.218Z,68
2022-09-04T12:20:16.214Z,67
2022-09-04T12:21:31.102Z,68
2022-09-04T12:22:44.490Z,68
2022-09-04T12:24:00.126Z,67
2022-09-04T12:25:10.562Z,68
2022-09-04T12:26:20.678Z,68
2022-09-04T12:27:35.758Z,68
2022-09-04T12:28:51.366Z,68
2022-09-04T12:30:06.015Z,68
2022-09-04T12:31:15.838Z,68
2022-09-04T12:32:30.271Z,67
2022-09-04T12:33:44.480Z,68
2022-09-04T12:34:49.894Z,68
2022-09-04T12:36:02.769Z,68
2022-09-04T12:37:14.686Z,67
2022-09-04T12:38:27.838Z,67
2022-09-04T12:39:44.805Z,67
2022-09-04T12:40:59.418Z,67
2022-09-04T12:42:10.258Z,67
2022-09-04T12:43:20.352Z,67
2022-09-04T12:44:29.990Z,67
2022-09-04T12:45:42.225Z,65
2022-09-04T12:46:56.597Z,66
2022-09-04T12:48:06.150Z,66
2022-09-04T12:49:12.374Z,65
2022-09-04T12:50:19.426Z,66
2022-09-04T12:51:26.186Z,65
2022-09-04T12:52:35.879Z,64
2022-09-04T12:53:52.003Z,64
2022-09-04T12:55:03.778Z,65
2022-09-04T12:56:18.623Z,65
2022-09-04T12:57:28.510Z,65
2022-09-04T12:58:33.234Z,64
2022-09-04T12:59:48.019Z,65
2022-09-04T13:00:57.498Z,65
2022-09-04T13:02:09.917Z,66
2022-09-04T13:03:24.629Z,66
2022-09-04T13:04:37.078Z,67
2022-09-04T13:05:53.145Z,67
2022-09-04T13:06:59.250Z,66
2022-09-04T13:08:12.207Z,66
2022-09-04T13:09:16.821Z,66
2022-09-04T13:10:27.102Z,66
2022-09-04T13:11:39.834Z,67
2022-09-04T13:12:44.610Z,68
2022-09-04T13:13:54.362Z,67
2022-09-04T13:15:09.201Z,67
2022-09-04T13:16:17.024Z,67
2022-09-04T13:17:29.735Z,67
2022-09-04T13:18:39.778Z,67
2022-09-04T13:19:47.170Z,67
2022-09-04T13:20:57.015Z,68
2022-09-04T13:22:09.866Z,68
2022-09-04T13:23:26.910Z,68
2022-09-04T13:24:43.663Z,68
2022-09-04T13:25:48.662Z,68
2022-09-04T13:26:58.022Z,68
2022-09-04T13:28:07.722Z,68
2022-09-04T13:29:11.938Z,68
2022-09-04T13:30:26.986Z,68
2022-09-04T13:31:33.659Z,67
2022-09-04T13:32:45.171Z,68
2022-09-04T13:34:00.345Z,68
2022-09-04T13:35:17.472Z,68
2022-09-04T13:36:25.354Z,69
2022-09-04T13:37:40.106Z,68
2022-09-04T13:38:47.514Z,68
2022-09-04T13:39:57.151Z,69
2022-09-04T13:41:09.446Z,69
2022-09-04T13:42:19.262Z,68
2022-09-04T13:43:28.994Z,69
2022-09-04T13:44:41.826Z,68
2022-09-04T13:45:56.322Z,68
2022-09-04T13:47:00.890Z,69
2022-09-04T13:48:05.138Z,68
2022-09-04T13:49:12.850Z,68
2022-09-04T13:50:17.398Z,68
2022-09-04T13:51:32.614Z,68
2022-09-04T13:52:37.511Z,68
2022-09-04T13:53:46.982Z,69
2022-09-04T13:55:05.394Z,68
2022-09-04T13:56:15.302Z,69
2022-09-04T13:57:20.359Z,68
2022-09-04T13:58:27.942Z,68
2022-09-04T13:59:33.182Z,67
2022-09-04T14:00:38.707Z,68
2022-09-04T14:01:48.895Z,68
2022-09-04T14:02:53.446Z,67
2022-09-04T14:04:00.787Z,67
2022-09-04T14:05:07.770Z,67
2022-09-04T14:06:12.122Z,66
2022-09-04T14:07:17.155Z,66
2022-09-04T14:08:27.131Z,66
2022-09-04T14:09:31.610Z,66
2022-09-04T14:10:44.047Z,67
2022-09-04T14:11:54.251Z,67
2022-09-04T14:13:08.595Z,67
2022-09-04T14:14:27.522Z,67
2022-09-04T14:15:40.219Z,67
2022-09-04T14:16:48.778Z,68
2022-09-04T14:17:53.942Z,68
2022-09-04T14:19:12.308Z,67
2022-09-04T14:20:18.460Z,67
2022-09-04T14:21:27.534Z,67
2022-09-04T14:22:45.209Z,68
2022-09-04T14:24:07.451Z,68
2022-09-04T14:25:12.159Z,67
2022-09-04T14:26:22.566Z,67
2022-09-04T14:27:35.405Z,68
2022-09-04T14:28:42.950Z,68
2022-09-04T14:29:50.050Z,68
2022-09-04T14:31:00.262Z,68
2022-09-04T14:35:53.623Z,67
2022-09-04T14:37:06.334Z,67
2022-09-04T14:38:15.914Z,67
2022-09-04T14:39:26.616Z,68
2022-09-04T14:40:37.051Z,68
2022-09-04T14:41:46.822Z,68
2022-09-04T14:43:17.817Z,68
2022-09-04T14:44:30.016Z,69
2022-09-04T14:45:42.870Z,69
2022-09-04T14:46:53.179Z,69
2022-09-04T14:48:03.134Z,68
2022-09-04T14:49:08.730Z,69
2022-09-04T14:50:35.778Z,69
2022-09-04T14:51:52.239Z,69
2022-09-04T14:53:01.566Z,69
2022-09-04T14:54:05.714Z,69
2022-09-04T14:55:20.487Z,69
2022-09-04T14:56:32.626Z,69
2022-09-04T14:57:39.938Z,70
2022-09-04T14:58:50.658Z,70
2022-09-04T15:00:06.075Z,70
2022-09-04T15:01:18.588Z,69
2022-09-04T15:02:46.334Z,69
2022-09-04T15:03:56.289Z,69
2022-09-04T15:05:03.271Z,69
2022-09-04T15:06:21.445Z,69
2022-09-04T15:09:22.882Z,70
2022-09-04T15:10:29.738Z,69
2022-09-04T15:11:44.474Z,69
2022-09-04T15:12:48.803Z,70
2022-09-04T15:14:13.355Z,70
2022-09-04T15:15:17.611Z,70
2022-09-04T15:16:28.379Z,71
2022-09-04T15:17:33.151Z,71
2022-09-04T15:18:37.662Z,70
2022-09-04T15:19:42.182Z,71
2022-09-04T15:20:54.770Z,71
2022-09-04T15:23:40.326Z,71
2022-09-04T15:24:58.058Z,71
2022-09-04T15:26:11.217Z,71
2022-09-04T15:27:18.370Z,71
2022-09-04T15:28:25.859Z,71
2022-09-04T15:31:06.549Z,71
2022-09-04T15:33:05.175Z,71
2022-09-04T15:34:12.526Z,72
2022-09-04T15:35:23.454Z,72
2022-09-04T15:36:27.982Z,72
2022-09-04T15:37:32.219Z,72
2022-09-04T15:38:36.350Z,72
2022-09-04T15:39:47.384Z,72
2022-09-04T15:41:13.035Z,72
2022-09-04T15:41:56.002Z,72
2022-09-04T15:43:00.542Z,72
2022-09-04T15:44:04.750Z,72
2022-09-04T15:45:14.738Z,71
2022-09-04T15:46:22.602Z,71
2022-09-04T15:47:35.270Z,72
2022-09-04T15:50:25.941Z,72
2022-09-04T15:51:34.526Z,72
2022-09-04T15:54:46.982Z,72
2022-09-04T15:55:59.602Z,72
2022-09-04T15:57:09.489Z,72
2022-09-04T15:58:30.089Z,72
2022-09-04T15:59:46.902Z,73
2022-09-04T16:02:32.549Z,72
2022-09-04T16:03:44.774Z,72
2022-09-04T16:04:54.798Z,73
2022-09-04T16:06:20.837Z,73
2022-09-04T16:07:28.093Z,74
2022-09-04T16:08:41.977Z,74
2022-09-04T16:09:51.761Z,74
2022-09-04T16:10:59.687Z,74
2022-09-04T16:12:19.966Z,74
2022-09-04T16:13:24.650Z,74
2022-09-04T16:14:29.401Z,74
2022-09-04T16:15:33.842Z,74
2022-09-04T16:16:41.065Z,73
2022-09-04T16:17:46.026Z,73
2022-09-04T16:18:53.646Z,73
2022-09-04T16:20:02.046Z,73
2022-09-04T16:21:15.729Z,73
2022-09-04T16:22:24.449Z,73
2022-09-04T16:23:34.545Z,73
2022-09-04T16:24:42.305Z,73
2022-09-04T16:25:52.226Z,73
2022-09-04T16:26:56.786Z,73
2022-09-04T16:29:28.999Z,72
2022-09-04T16:30:44.988Z,72
2022-09-04T16:32:02.989Z,73
2022-09-04T16:33:20.642Z,73
2022-09-04T16:34:40.714Z,73
2022-09-04T16:35:53.429Z,73
2022-09-04T16:38:53.258Z,74
2022-09-04T16:40:03.092Z,74
2022-09-04T16:41:12.485Z,74
2022-09-04T16:42:55.253Z,74
2022-09-04T16:44:05.398Z,74
2022-09-04T16:45:14.006Z,74
2022-09-04T16:46:28.388Z,74
2022-09-04T16:47:33.902Z,75
2022-09-04T16:48:52.256Z,75
2022-09-04T16:49:56.889Z,75
2022-09-04T16:51:09.773Z,75
2022-09-04T16:52:19.193Z,75
2022-09-04T16:55:18.666Z,75
2022-09-04T16:56:34.536Z,75
2022-09-04T16:57:38.077Z,75
2022-09-04T17:00:29.061Z,74
2022-09-04T17:01:44.255Z,74
2022-09-04T17:03:09.424Z,74
2022-09-04T17:04:18.797Z,74
2022-09-04T17:05:34.145Z,74
2022-09-04T17:06:46.595Z,74
2022-09-04T17:07:59.586Z,74
2022-09-04T17:09:15.667Z,74
2022-09-04T17:10:21.917Z,75
2022-09-04T17:11:35.365Z,75
2022-09-04T17:12:50.770Z,75
2022-09-04T17:14:05.276Z,75
2022-09-04T17:15:12.748Z,75
2022-09-04T17:16:22.421Z,76
2022-09-04T17:17:30.424Z,76
2022-09-04T17:18:31.490Z,76
2022-09-04T17:19:36.069Z,76
2022-09-04T17:22:20.168Z,76
2022-09-04T17:22:26.313Z,77
2022-09-04T17:26:04.880Z,77
2022-09-04T17:26:34.659Z,77
2022-09-04T17:26:36.035Z,76
2022-09-04T17:29:06.751Z,77
2022-09-04T17:29:06.981Z,76
2022-09-04T17:29:27.749Z,76
2022-09-04T17:30:04.208Z,76
2022-09-04T17:31:08.736Z,76
2022-09-04T17:32:35.477Z,76
2022-09-04T17:36:24.998Z,76
2022-09-04T17:36:26.307Z,76
2022-09-04T17:39:15.580Z,76
2022-09-04T17:39:41.099Z,75
2022-09-04T17:40:34.526Z,76
2022-09-04T17:40:46.265Z,76
2022-09-04T17:41:00.273Z,76
2022-09-04T17:41:35.019Z,76
2022-09-04T17:42:40.196Z,76
2022-09-04T17:43:53.352Z,76
2022-09-04T17:45:22.068Z,76
2022-09-04T17:46:32.883Z,77
2022-09-04T17:47:45.484Z,77
2022-09-04T17:48:50.616Z,77
2022-09-04T17:49:55.228Z,78
2022-09-04T17:51:00.001Z,78
2022-09-04T17:52:04.773Z,78
2022-09-04T17:53:14.770Z,78
2022-09-04T17:54:32.984Z,78
2022-09-04T17:55:47.179Z,79
2022-09-04T17:56:51.200Z,79
2022-09-04T17:57:58.517Z,80
2022-09-04T17:59:02.834Z,80
2022-09-04T18:00:13.020Z,80
2022-09-04T18:01:20.584Z,80
2022-09-04T18:02:35.049Z,80
2022-09-04T18:04:02.988Z,80
2022-09-04T18:05:04.457Z,80
2022-09-04T18:06:14.033Z,80
2022-09-04T18:07:27.440Z,80
2022-09-04T18:08:36.216Z,80
2022-09-04T18:09:51.340Z,80
2022-09-04T18:10:58.764Z,80
2022-09-04T18:12:11.250Z,80
2022-09-04T18:13:27.247Z,80
2022-09-04T18:14:25.896Z,80
2022-09-04T18:15:38.408Z,80
2022-09-04T18:16:50.358Z,80
2022-09-04T18:17:59.604Z,80
2022-09-04T18:19:09.489Z,80
2022-09-04T18:20:19.293Z,80
2022-09-04T18:21:30.993Z,80
2022-09-04T18:22:43.453Z,80
2022-09-04T18:23:58.104Z,80
2022-09-04T18:25:12.921Z,80
2022-09-04T18:26:14.597Z,80